sensor_id;sensor_type;location;lat;lon;timestamp;P1;durP1;ratioP1;P2;durP2;ratioP2
75616;SDS011;64200;55.426;37.758;2023-04-19T00:04:32;7.57;;;4.18;;
75616;SDS011;64200;55.426;37.758;2023-04-19T00:09:37;7.43;;;4.68;;
75616;SDS011;64200;55.426;37.758;2023-04-19T00:14:37;7.68;;;4.63;;
75616;SDS011;64200;55.426;37.758;2023-04-19T00:19:38;6.17;;;4.40;;
75616;SDS011;64200;55.426;37.758;2023-04-19T00:24:38;5.75;;;4.05;;
75616;SDS011;64200;55.426;37.758;2023-04-19T00:29:39;6.65;;;4.20;;
75616;SDS011;64200;55.426;37.758;2023-04-19T00:34:40;7.03;;;4.22;;
75616;SDS011;64200;55.426;37.758;2023-04-19T00:39:40;8.32;;;4.05;;
75616;SDS011;64200;55.426;37.758;2023-04-19T00:44:41;6.85;;;4.07;;
75616;SDS011;64200;55.426;37.758;2023-04-19T00:49:42;8.18;;;4.15;;
75616;SDS011;64200;55.426;37.758;2023-04-19T00:54:42;6.55;;;4.60;;
75616;SDS011;64200;55.426;37.758;2023-04-19T00:59:45;6.97;;;4.57;;
75616;SDS011;64200;55.426;37.758;2023-04-19T01:04:46;9.10;;;4.90;;
75616;SDS011;64200;55.426;37.758;2023-04-19T01:09:47;7.72;;;4.25;;
75616;SDS011;64200;55.426;37.758;2023-04-19T01:14:48;7.47;;;4.68;;
75616;SDS011;64200;55.426;37.758;2023-04-19T01:19:49;5.38;;;4.25;;
75616;SDS011;64200;55.426;37.758;2023-04-19T01:24:58;5.72;;;3.75;;
75616;SDS011;64200;55.426;37.758;2023-04-19T01:29:59;7.93;;;4.20;;
75616;SDS011;64200;55.426;37.758;2023-04-19T01:34:59;7.63;;;3.92;;
75616;SDS011;64200;55.426;37.758;2023-04-19T01:40:00;6.77;;;3.93;;
75616;SDS011;64200;55.426;37.758;2023-04-19T01:45:00;6.63;;;4.75;;
75616;SDS011;64200;55.426;37.758;2023-04-19T01:50:01;7.72;;;3.95;;
75616;SDS011;64200;55.426;37.758;2023-04-19T01:55:02;6.78;;;4.88;;
75616;SDS011;64200;55.426;37.758;2023-04-19T02:00:02;7.20;;;4.60;;
75616;SDS011;64200;55.426;37.758;2023-04-19T02:05:06;7.82;;;4.57;;
75616;SDS011;64200;55.426;37.758;2023-04-19T02:10:10;8.65;;;4.00;;
75616;SDS011;64200;55.426;37.758;2023-04-19T02:15:11;7.75;;;4.35;;
75616;SDS011;64200;55.426;37.758;2023-04-19T02:20:12;7.30;;;4.10;;
75616;SDS011;64200;55.426;37.758;2023-04-19T02:25:12;6.63;;;4.45;;
75616;SDS011;64200;55.426;37.758;2023-04-19T02:30:13;8.23;;;4.63;;
75616;SDS011;64200;55.426;37.758;2023-04-19T02:35:13;8.38;;;3.90;;
75616;SDS011;64200;55.426;37.758;2023-04-19T02:40:14;8.93;;;4.20;;
75616;SDS011;64200;55.426;37.758;2023-04-19T02:45:15;6.45;;;4.38;;
75616;SDS011;64200;55.426;37.758;2023-04-19T02:50:15;8.63;;;4.47;;
75616;SDS011;64200;55.426;37.758;2023-04-19T02:55:16;6.85;;;4.22;;
75616;SDS011;64200;55.426;37.758;2023-04-19T03:00:16;7.07;;;4.90;;
75616;SDS011;64200;55.426;37.758;2023-04-19T03:05:17;5.78;;;4.28;;
75616;SDS011;64200;55.426;37.758;2023-04-19T03:10:18;7.28;;;4.05;;
75616;SDS011;64200;55.426;37.758;2023-04-19T03:15:18;8.98;;;5.07;;
75616;SDS011;64200;55.426;37.758;2023-04-19T03:20:19;12.38;;;5.57;;
75616;SDS011;64200;55.426;37.758;2023-04-19T03:25:20;11.90;;;5.43;;
75616;SDS011;64200;55.426;37.758;2023-04-19T03:30:20;9.88;;;5.45;;
75616;SDS011;64200;55.426;37.758;2023-04-19T03:35:21;9.60;;;4.47;;
75616;SDS011;64200;55.426;37.758;2023-04-19T03:40:25;12.13;;;5.07;;
75616;SDS011;64200;55.426;37.758;2023-04-19T03:45:25;9.20;;;5.00;;
75616;SDS011;64200;55.426;37.758;2023-04-19T03:50:26;11.00;;;5.45;;
75616;SDS011;64200;55.426;37.758;2023-04-19T03:55:26;7.30;;;4.37;;
75616;SDS011;64200;55.426;37.758;2023-04-19T04:00:27;9.60;;;5.10;;
75616;SDS011;64200;55.426;37.758;2023-04-19T04:05:27;14.83;;;5.67;;
75616;SDS011;64200;55.426;37.758;2023-04-19T04:10:28;9.98;;;5.15;;
75616;SDS011;64200;55.426;37.758;2023-04-19T04:15:29;12.27;;;5.75;;
75616;SDS011;64200;55.426;37.758;2023-04-19T04:20:29;12.03;;;4.80;;
75616;SDS011;64200;55.426;37.758;2023-04-19T04:25:30;11.73;;;5.38;;
75616;SDS011;64200;55.426;37.758;2023-04-19T04:30:32;7.88;;;5.13;;
75616;SDS011;64200;55.426;37.758;2023-04-19T04:35:33;10.50;;;4.55;;
75616;SDS011;64200;55.426;37.758;2023-04-19T04:40:34;10.50;;;5.10;;
75616;SDS011;64200;55.426;37.758;2023-04-19T04:45:34;13.73;;;4.72;;
75616;SDS011;64200;55.426;37.758;2023-04-19T04:50:38;7.38;;;4.47;;
75616;SDS011;64200;55.426;37.758;2023-04-19T04:55:39;7.88;;;4.88;;
75616;SDS011;64200;55.426;37.758;2023-04-19T05:00:40;6.80;;;4.57;;
75616;SDS011;64200;55.426;37.758;2023-04-19T05:05:41;9.10;;;4.32;;
75616;SDS011;64200;55.426;37.758;2023-04-19T05:10:42;8.15;;;4.45;;
75616;SDS011;64200;55.426;37.758;2023-04-19T05:15:42;7.10;;;4.20;;
75616;SDS011;64200;55.426;37.758;2023-04-19T05:20:43;10.17;;;5.03;;
75616;SDS011;64200;55.426;37.758;2023-04-19T05:25:43;9.02;;;5.10;;
75616;SDS011;64200;55.426;37.758;2023-04-19T05:30:44;7.57;;;4.40;;
75616;SDS011;64200;55.426;37.758;2023-04-19T05:35:45;7.22;;;4.13;;
75616;SDS011;64200;55.426;37.758;2023-04-19T05:40:45;5.03;;;3.55;;
75616;SDS011;64200;55.426;37.758;2023-04-19T05:45:46;6.55;;;4.88;;
75616;SDS011;64200;55.426;37.758;2023-04-19T05:50:47;7.68;;;3.60;;
75616;SDS011;64200;55.426;37.758;2023-04-19T05:55:47;4.32;;;3.55;;
75616;SDS011;64200;55.426;37.758;2023-04-19T06:00:50;6.72;;;4.05;;
75616;SDS011;64200;55.426;37.758;2023-04-19T06:05:51;7.10;;;3.67;;
75616;SDS011;64200;55.426;37.758;2023-04-19T06:10:51;8.82;;;4.05;;
75616;SDS011;64200;55.426;37.758;2023-04-19T06:15:53;9.75;;;3.88;;
75616;SDS011;64200;55.426;37.758;2023-04-19T06:20:53;7.85;;;3.47;;
75616;SDS011;64200;55.426;37.758;2023-04-19T06:25:54;6.18;;;3.95;;
75616;SDS011;64200;55.426;37.758;2023-04-19T06:30:55;5.50;;;3.93;;
75616;SDS011;64200;55.426;37.758;2023-04-19T06:35:55;8.10;;;3.50;;
75616;SDS011;64200;55.426;37.758;2023-04-19T06:40:56;8.70;;;3.70;;
75616;SDS011;64200;55.426;37.758;2023-04-19T06:46:00;6.23;;;3.40;;
75616;SDS011;64200;55.426;37.758;2023-04-19T06:56:02;5.30;;;3.97;;
75616;SDS011;64200;55.426;37.758;2023-04-19T07:01:03;8.35;;;3.92;;
75616;SDS011;64200;55.426;37.758;2023-04-19T07:06:04;5.60;;;3.45;;
75616;SDS011;64200;55.426;37.758;2023-04-19T07:11:08;6.88;;;3.35;;
75616;SDS011;64200;55.426;37.758;2023-04-19T07:16:09;4.45;;;2.92;;
75616;SDS011;64200;55.426;37.758;2023-04-19T07:21:09;4.10;;;2.92;;
75616;SDS011;64200;55.426;37.758;2023-04-19T07:26:11;7.53;;;2.97;;
75616;SDS011;64200;55.426;37.758;2023-04-19T07:31:15;6.13;;;2.90;;
75616;SDS011;64200;55.426;37.758;2023-04-19T07:36:16;5.38;;;2.80;;
75616;SDS011;64200;55.426;37.758;2023-04-19T07:41:17;4.53;;;2.83;;
75616;SDS011;64200;55.426;37.758;2023-04-19T07:46:18;3.97;;;2.40;;
75616;SDS011;64200;55.426;37.758;2023-04-19T07:51:18;5.03;;;3.75;;
75616;SDS011;64200;55.426;37.758;2023-04-19T07:56:20;7.95;;;3.28;;
75616;SDS011;64200;55.426;37.758;2023-04-19T08:01:22;5.10;;;3.17;;
75616;SDS011;64200;55.426;37.758;2023-04-19T08:06:22;5.15;;;3.20;;
75616;SDS011;64200;55.426;37.758;2023-04-19T08:11:23;5.30;;;3.00;;
75616;SDS011;64200;55.426;37.758;2023-04-19T08:16:24;5.38;;;2.90;;
75616;SDS011;64200;55.426;37.758;2023-04-19T08:21:25;6.57;;;3.45;;
75616;SDS011;64200;55.426;37.758;2023-04-19T08:26:26;6.68;;;2.83;;
75616;SDS011;64200;55.426;37.758;2023-04-19T08:31:26;4.03;;;2.50;;
75616;SDS011;64200;55.426;37.758;2023-04-19T08:36:27;8.30;;;3.00;;
75616;SDS011;64200;55.426;37.758;2023-04-19T08:41:29;4.47;;;2.20;;
75616;SDS011;64200;55.426;37.758;2023-04-19T08:46:30;7.13;;;2.85;;
75616;SDS011;64200;55.426;37.758;2023-04-19T08:51:31;4.85;;;2.90;;
75616;SDS011;64200;55.426;37.758;2023-04-19T08:56:33;4.20;;;2.58;;
75616;SDS011;64200;55.426;37.758;2023-04-19T09:01:33;6.68;;;3.40;;
75616;SDS011;64200;55.426;37.758;2023-04-19T09:06:34;4.80;;;3.50;;
75616;SDS011;64200;55.426;37.758;2023-04-19T09:11:38;6.10;;;3.28;;
75616;SDS011;64200;55.426;37.758;2023-04-19T09:16:39;5.27;;;3.30;;
75616;SDS011;64200;55.426;37.758;2023-04-19T09:21:40;4.75;;;3.30;;
75616;SDS011;64200;55.426;37.758;2023-04-19T09:26:43;6.20;;;3.22;;
75616;SDS011;64200;55.426;37.758;2023-04-19T09:31:57;7.00;;;3.50;;
75616;SDS011;64200;55.426;37.758;2023-04-19T09:37:10;4.38;;;3.60;;
75616;SDS011;64200;55.426;37.758;2023-04-19T09:42:14;4.70;;;3.10;;
75616;SDS011;64200;55.426;37.758;2023-04-19T09:47:23;5.55;;;3.20;;
75616;SDS011;64200;55.426;37.758;2023-04-19T09:52:24;6.72;;;3.38;;
75616;SDS011;64200;55.426;37.758;2023-04-19T09:57:25;4.97;;;3.63;;
75616;SDS011;64200;55.426;37.758;2023-04-19T10:02:29;5.72;;;4.03;;
75616;SDS011;64200;55.426;37.758;2023-04-19T10:07:34;6.13;;;3.80;;
75616;SDS011;64200;55.426;37.758;2023-04-19T10:12:35;6.53;;;4.32;;
75616;SDS011;64200;55.426;37.758;2023-04-19T10:17:36;5.28;;;4.35;;
75616;SDS011;64200;55.426;37.758;2023-04-19T10:22:39;4.35;;;3.85;;
75616;SDS011;64200;55.426;37.758;2023-04-19T10:27:41;9.80;;;3.92;;
75616;SDS011;64200;55.426;37.758;2023-04-19T10:32:46;5.75;;;4.22;;
75616;SDS011;64200;55.426;37.758;2023-04-19T10:43:15;5.68;;;3.60;;
75616;SDS011;64200;55.426;37.758;2023-04-19T10:59:20;4.90;;;3.63;;
75616;SDS011;64200;55.426;37.758;2023-04-19T11:04:22;7.70;;;4.35;;
75616;SDS011;64200;55.426;37.758;2023-04-19T11:14:41;7.50;;;4.05;;
75616;SDS011;64200;55.426;37.758;2023-04-19T11:19:44;5.00;;;3.78;;
75616;SDS011;64200;55.426;37.758;2023-04-19T11:24:51;5.90;;;3.88;;
75616;SDS011;64200;55.426;37.758;2023-04-19T11:29:52;4.40;;;3.97;;
75616;SDS011;64200;55.426;37.758;2023-04-19T11:35:07;7.90;;;4.13;;
75616;SDS011;64200;55.426;37.758;2023-04-19T11:40:09;5.38;;;4.05;;
75616;SDS011;64200;55.426;37.758;2023-04-19T11:45:23;4.40;;;3.90;;
75616;SDS011;64200;55.426;37.758;2023-04-19T11:50:29;6.70;;;4.32;;
75616;SDS011;64200;55.426;37.758;2023-04-19T11:55:36;5.32;;;3.90;;
75616;SDS011;64200;55.426;37.758;2023-04-19T12:00:37;6.88;;;4.15;;
75616;SDS011;64200;55.426;37.758;2023-04-19T12:05:37;6.67;;;4.57;;
75616;SDS011;64200;55.426;37.758;2023-04-19T12:10:38;6.90;;;4.60;;
75616;SDS011;64200;55.426;37.758;2023-04-19T12:15:43;5.43;;;4.00;;
75616;SDS011;64200;55.426;37.758;2023-04-19T12:20:46;5.68;;;4.35;;
75616;SDS011;64200;55.426;37.758;2023-04-19T12:25:48;5.47;;;3.78;;
75616;SDS011;64200;55.426;37.758;2023-04-19T12:30:49;6.03;;;3.88;;
75616;SDS011;64200;55.426;37.758;2023-04-19T12:35:49;8.88;;;4.03;;
75616;SDS011;64200;55.426;37.758;2023-04-19T12:40:50;7.72;;;4.18;;
75616;SDS011;64200;55.426;37.758;2023-04-19T12:45:50;5.85;;;3.15;;
75616;SDS011;64200;55.426;37.758;2023-04-19T12:50:51;4.97;;;3.22;;
75616;SDS011;64200;55.426;37.758;2023-04-19T12:55:51;5.03;;;3.35;;
75616;SDS011;64200;55.426;37.758;2023-04-19T13:00:52;3.33;;;3.03;;
75616;SDS011;64200;55.426;37.758;2023-04-19T13:05:53;6.32;;;3.15;;
75616;SDS011;64200;55.426;37.758;2023-04-19T13:10:56;5.57;;;3.22;;
75616;SDS011;64200;55.426;37.758;2023-04-19T13:15:58;9.60;;;3.85;;
75616;SDS011;64200;55.426;37.758;2023-04-19T13:21:02;4.85;;;3.03;;
75616;SDS011;64200;55.426;37.758;2023-04-19T13:26:03;4.90;;;3.10;;
75616;SDS011;64200;55.426;37.758;2023-04-19T13:31:03;7.55;;;4.07;;
75616;SDS011;64200;55.426;37.758;2023-04-19T13:36:05;5.63;;;3.20;;
75616;SDS011;64200;55.426;37.758;2023-04-19T13:41:05;5.00;;;2.92;;
75616;SDS011;64200;55.426;37.758;2023-04-19T13:46:06;6.72;;;3.00;;
75616;SDS011;64200;55.426;37.758;2023-04-19T13:51:07;6.90;;;2.90;;
75616;SDS011;64200;55.426;37.758;2023-04-19T13:56:07;5.13;;;2.53;;
75616;SDS011;64200;55.426;37.758;2023-04-19T14:01:08;4.10;;;2.88;;
75616;SDS011;64200;55.426;37.758;2023-04-19T14:06:09;5.32;;;3.50;;
75616;SDS011;64200;55.426;37.758;2023-04-19T14:11:10;4.03;;;2.42;;
75616;SDS011;64200;55.426;37.758;2023-04-19T14:16:10;6.43;;;3.35;;
75616;SDS011;64200;55.426;37.758;2023-04-19T14:21:11;5.15;;;3.15;;
75616;SDS011;64200;55.426;37.758;2023-04-19T14:26:12;5.40;;;2.78;;
75616;SDS011;64200;55.426;37.758;2023-04-19T14:31:13;4.63;;;3.05;;
75616;SDS011;64200;55.426;37.758;2023-04-19T14:36:14;6.40;;;3.17;;
75616;SDS011;64200;55.426;37.758;2023-04-19T14:41:14;6.95;;;3.20;;
75616;SDS011;64200;55.426;37.758;2023-04-19T14:46:15;6.28;;;2.92;;
75616;SDS011;64200;55.426;37.758;2023-04-19T14:51:15;5.95;;;3.38;;
75616;SDS011;64200;55.426;37.758;2023-04-19T14:56:16;4.65;;;2.78;;
75616;SDS011;64200;55.426;37.758;2023-04-19T15:01:16;4.50;;;2.90;;
75616;SDS011;64200;55.426;37.758;2023-04-19T15:06:17;4.97;;;2.65;;
75616;SDS011;64200;55.426;37.758;2023-04-19T15:11:17;5.13;;;2.65;;
75616;SDS011;64200;55.426;37.758;2023-04-19T15:16:18;5.97;;;2.72;;
75616;SDS011;64200;55.426;37.758;2023-04-19T15:21:20;7.00;;;3.00;;
75616;SDS011;64200;55.426;37.758;2023-04-19T15:26:21;10.75;;;3.63;;
75616;SDS011;64200;55.426;37.758;2023-04-19T15:31:23;5.15;;;3.22;;
75616;SDS011;64200;55.426;37.758;2023-04-19T15:36:26;7.78;;;3.55;;
75616;SDS011;64200;55.426;37.758;2023-04-19T15:41:27;6.07;;;4.10;;
75616;SDS011;64200;55.426;37.758;2023-04-19T15:46:27;9.20;;;3.90;;
75616;SDS011;64200;55.426;37.758;2023-04-19T15:51:28;4.68;;;3.28;;
75616;SDS011;64200;55.426;37.758;2023-04-19T15:56:29;9.85;;;3.30;;
75616;SDS011;64200;55.426;37.758;2023-04-19T16:01:29;6.75;;;3.40;;
75616;SDS011;64200;55.426;37.758;2023-04-19T16:06:32;6.55;;;3.50;;
75616;SDS011;64200;55.426;37.758;2023-04-19T16:11:33;6.72;;;3.67;;
75616;SDS011;64200;55.426;37.758;2023-04-19T16:16:34;7.88;;;3.10;;
75616;SDS011;64200;55.426;37.758;2023-04-19T16:21:34;5.68;;;3.95;;
75616;SDS011;64200;55.426;37.758;2023-04-19T16:26:35;6.93;;;2.65;;
75616;SDS011;64200;55.426;37.758;2023-04-19T16:31:35;5.43;;;2.65;;
75616;SDS011;64200;55.426;37.758;2023-04-19T16:36:36;6.68;;;3.35;;
75616;SDS011;64200;55.426;37.758;2023-04-19T16:41:36;9.57;;;3.03;;
75616;SDS011;64200;55.426;37.758;2023-04-19T16:46:37;9.10;;;3.05;;
75616;SDS011;64200;55.426;37.758;2023-04-19T16:51:37;7.70;;;2.80;;
75616;SDS011;64200;55.426;37.758;2023-04-19T16:56:38;6.13;;;2.72;;
75616;SDS011;64200;55.426;37.758;2023-04-19T17:01:38;5.55;;;3.10;;
75616;SDS011;64200;55.426;37.758;2023-04-19T17:06:39;6.68;;;3.00;;
75616;SDS011;64200;55.426;37.758;2023-04-19T17:11:40;6.88;;;3.20;;
75616;SDS011;64200;55.426;37.758;2023-04-19T17:16:41;14.80;;;4.40;;
75616;SDS011;64200;55.426;37.758;2023-04-19T17:21:41;9.73;;;3.40;;
75616;SDS011;64200;55.426;37.758;2023-04-19T17:26:42;9.45;;;3.53;;
75616;SDS011;64200;55.426;37.758;2023-04-19T17:31:43;11.07;;;4.10;;
75616;SDS011;64200;55.426;37.758;2023-04-19T17:36:43;5.30;;;3.35;;
75616;SDS011;64200;55.426;37.758;2023-04-19T17:41:44;7.03;;;3.70;;
75616;SDS011;64200;55.426;37.758;2023-04-19T17:46:45;7.03;;;3.55;;
75616;SDS011;64200;55.426;37.758;2023-04-19T17:51:45;8.10;;;3.95;;
75616;SDS011;64200;55.426;37.758;2023-04-19T17:56:46;9.13;;;3.70;;
75616;SDS011;64200;55.426;37.758;2023-04-19T18:01:47;16.38;;;4.85;;
75616;SDS011;64200;55.426;37.758;2023-04-19T18:06:47;7.63;;;4.67;;
75616;SDS011;64200;55.426;37.758;2023-04-19T18:11:48;10.48;;;4.68;;
75616;SDS011;64200;55.426;37.758;2023-04-19T18:16:49;8.87;;;4.37;;
75616;SDS011;64200;55.426;37.758;2023-04-19T18:21:49;8.45;;;4.78;;
75616;SDS011;64200;55.426;37.758;2023-04-19T18:26:51;11.95;;;4.93;;
75616;SDS011;64200;55.426;37.758;2023-04-19T18:31:52;9.98;;;5.70;;
75616;SDS011;64200;55.426;37.758;2023-04-19T18:36:59;6.72;;;4.32;;
75616;SDS011;64200;55.426;37.758;2023-04-19T18:42:04;14.45;;;6.40;;
75616;SDS011;64200;55.426;37.758;2023-04-19T18:47:04;22.00;;;8.10;;
75616;SDS011;64200;55.426;37.758;2023-04-19T18:52:05;14.35;;;5.78;;
75616;SDS011;64200;55.426;37.758;2023-04-19T18:57:06;12.48;;;5.60;;
75616;SDS011;64200;55.426;37.758;2023-04-19T19:02:06;8.95;;;5.38;;
75616;SDS011;64200;55.426;37.758;2023-04-19T19:07:07;10.32;;;5.30;;
75616;SDS011;64200;55.426;37.758;2023-04-19T19:12:08;11.90;;;4.88;;
75616;SDS011;64200;55.426;37.758;2023-04-19T19:17:08;9.73;;;4.80;;
75616;SDS011;64200;55.426;37.758;2023-04-19T19:22:09;11.23;;;5.45;;
75616;SDS011;64200;55.426;37.758;2023-04-19T19:27:09;9.73;;;4.83;;
75616;SDS011;64200;55.426;37.758;2023-04-19T19:32:10;11.07;;;6.68;;
75616;SDS011;64200;55.426;37.758;2023-04-19T19:37:11;11.32;;;5.50;;
75616;SDS011;64200;55.426;37.758;2023-04-19T19:42:15;15.73;;;5.90;;
75616;SDS011;64200;55.426;37.758;2023-04-19T19:47:16;12.88;;;6.13;;
75616;SDS011;64200;55.426;37.758;2023-04-19T19:52:17;10.43;;;6.50;;
75616;SDS011;64200;55.426;37.758;2023-04-19T19:57:17;12.17;;;6.30;;
75616;SDS011;64200;55.426;37.758;2023-04-19T20:02:18;15.10;;;6.82;;
75616;SDS011;64200;55.426;37.758;2023-04-19T20:07:19;15.52;;;6.25;;
75616;SDS011;64200;55.426;37.758;2023-04-19T20:12:19;13.60;;;6.40;;
75616;SDS011;64200;55.426;37.758;2023-04-19T20:17:20;15.33;;;6.53;;
75616;SDS011;64200;55.426;37.758;2023-04-19T20:22:21;13.48;;;6.78;;
75616;SDS011;64200;55.426;37.758;2023-04-19T20:27:21;16.65;;;6.50;;
75616;SDS011;64200;55.426;37.758;2023-04-19T20:32:22;13.57;;;7.37;;
75616;SDS011;64200;55.426;37.758;2023-04-19T20:37:23;17.33;;;6.70;;
75616;SDS011;64200;55.426;37.758;2023-04-19T20:42:25;12.43;;;6.72;;
75616;SDS011;64200;55.426;37.758;2023-04-19T20:47:26;13.52;;;6.15;;
75616;SDS011;64200;55.426;37.758;2023-04-19T20:52:27;10.90;;;5.72;;
75616;SDS011;64200;55.426;37.758;2023-04-19T20:57:27;12.73;;;5.77;;
75616;SDS011;64200;55.426;37.758;2023-04-19T21:02:28;14.55;;;6.15;;
75616;SDS011;64200;55.426;37.758;2023-04-19T21:07:29;11.30;;;5.22;;
75616;SDS011;64200;55.426;37.758;2023-04-19T21:12:31;11.90;;;6.00;;
75616;SDS011;64200;55.426;37.758;2023-04-19T21:17:35;10.80;;;6.22;;
75616;SDS011;64200;55.426;37.758;2023-04-19T21:22:37;11.13;;;6.40;;
75616;SDS011;64200;55.426;37.758;2023-04-19T21:27:39;11.25;;;6.22;;
75616;SDS011;64200;55.426;37.758;2023-04-19T21:32:41;15.02;;;5.72;;
75616;SDS011;64200;55.426;37.758;2023-04-19T21:37:41;8.70;;;5.40;;
75616;SDS011;64200;55.426;37.758;2023-04-19T21:42:42;10.60;;;4.73;;
75616;SDS011;64200;55.426;37.758;2023-04-19T21:47:42;7.87;;;4.67;;
75616;SDS011;64200;55.426;37.758;2023-04-19T21:52:43;7.95;;;4.22;;
75616;SDS011;64200;55.426;37.758;2023-04-19T21:57:43;10.63;;;5.00;;
75616;SDS011;64200;55.426;37.758;2023-04-19T22:02:44;12.90;;;4.97;;
75616;SDS011;64200;55.426;37.758;2023-04-19T22:07:44;8.05;;;4.57;;
75616;SDS011;64200;55.426;37.758;2023-04-19T22:12:46;10.65;;;5.13;;
75616;SDS011;64200;55.426;37.758;2023-04-19T22:17:47;15.23;;;5.50;;
75616;SDS011;64200;55.426;37.758;2023-04-19T22:22:47;12.15;;;5.28;;
75616;SDS011;64200;55.426;37.758;2023-04-19T22:27:48;11.63;;;5.20;;
75616;SDS011;64200;55.426;37.758;2023-04-19T22:32:48;15.85;;;6.22;;
75616;SDS011;64200;55.426;37.758;2023-04-19T22:37:49;10.38;;;5.70;;
75616;SDS011;64200;55.426;37.758;2023-04-19T22:42:50;11.43;;;5.35;;
75616;SDS011;64200;55.426;37.758;2023-04-19T22:47:50;10.80;;;5.85;;
75616;SDS011;64200;55.426;37.758;2023-04-19T22:52:51;9.83;;;5.70;;
75616;SDS011;64200;55.426;37.758;2023-04-19T22:57:51;10.68;;;5.80;;
75616;SDS011;64200;55.426;37.758;2023-04-19T23:02:52;13.90;;;6.22;;
75616;SDS011;64200;55.426;37.758;2023-04-19T23:07:56;10.73;;;5.32;;
75616;SDS011;64200;55.426;37.758;2023-04-19T23:13:03;9.40;;;5.25;;
75616;SDS011;64200;55.426;37.758;2023-04-19T23:18:04;11.05;;;5.10;;
75616;SDS011;64200;55.426;37.758;2023-04-19T23:23:05;15.65;;;5.85;;
75616;SDS011;64200;55.426;37.758;2023-04-19T23:28:06;10.43;;;5.30;;
75616;SDS011;64200;55.426;37.758;2023-04-19T23:33:07;8.97;;;4.80;;
75616;SDS011;64200;55.426;37.758;2023-04-19T23:38:07;11.33;;;4.63;;
75616;SDS011;64200;55.426;37.758;2023-04-19T23:43:08;11.13;;;4.10;;
75616;SDS011;64200;55.426;37.758;2023-04-19T23:48:08;12.73;;;4.33;;
75616;SDS011;64200;55.426;37.758;2023-04-19T23:53:09;10.82;;;4.50;;
75616;SDS011;64200;55.426;37.758;2023-04-19T23:58:10;9.23;;;4.72;;
